sensor_id;sensor_type;location;lat;lon;timestamp;temperature;humidity
24836;DHT22;12915;57.650;12.044;2022-11-15T00:00:55;12.60;99.90
24836;DHT22;12915;57.650;12.044;2022-11-15T00:07:24;12.40;99.90
24836;DHT22;12915;57.650;12.044;2022-11-15T00:09:51;12.40;99.90
24836;DHT22;12915;57.650;12.044;2022-11-15T00:12:18;12.50;99.90
24836;DHT22;12915;57.650;12.044;2022-11-15T00:14:46;12.60;99.90
24836;DHT22;12915;57.650;12.044;2022-11-15T00:17:18;12.70;99.90
24836;DHT22;12915;57.650;12.044;2022-11-15T00:19:48;12.70;99.90
24836;DHT22;12915;57.650;12.044;2022-11-15T00:25:42;12.10;99.90
24836;DHT22;12915;57.650;12.044;2022-11-15T00:28:30;11.90;99.90
24836;DHT22;12915;57.650;12.044;2022-11-15T00:31:01;11.70;99.90
24836;DHT22;12915;57.650;12.044;2022-11-15T00:33:32;12.00;99.90
24836;DHT22;12915;57.650;12.044;2022-11-15T00:36:07;12.30;99.90
24836;DHT22;12915;57.650;12.044;2022-11-15T00:38:35;12.40;99.90
24836;DHT22;12915;57.650;12.044;2022-11-15T00:41:03;12.40;99.90
24836;DHT22;12915;57.650;12.044;2022-11-15T00:43:29;12.40;99.90
24836;DHT22;12915;57.650;12.044;2022-11-15T00:45:55;12.50;99.90
24836;DHT22;12915;57.650;12.044;2022-11-15T00:48:20;12.70;99.90
24836;DHT22;12915;57.650;12.044;2022-11-15T00:50:46;12.50;99.90
24836;DHT22;12915;57.650;12.044;2022-11-15T00:53:12;12.40;99.90
24836;DHT22;12915;57.650;12.044;2022-11-15T00:55:38;12.50;99.90
24836;DHT22;12915;57.650;12.044;2022-11-15T00:58:04;12.40;99.90
24836;DHT22;12915;57.650;12.044;2022-11-15T01:00:30;12.30;99.90
24836;DHT22;12915;57.650;12.044;2022-11-15T01:02:56;11.90;99.90
24836;DHT22;12915;57.650;12.044;2022-11-15T01:05:22;11.80;99.90
24836;DHT22;12915;57.650;12.044;2022-11-15T01:11:16;11.80;99.90
24836;DHT22;12915;57.650;12.044;2022-11-15T01:13:42;11.70;99.90
24836;DHT22;12915;57.650;12.044;2022-11-15T01:16:29;11.90;99.90
24836;DHT22;12915;57.650;12.044;2022-11-15T01:18:56;12.30;99.90
24836;DHT22;12915;57.650;12.044;2022-11-15T01:21:22;12.40;99.90
24836;DHT22;12915;57.650;12.044;2022-11-15T01:23:53;12.50;99.90
24836;DHT22;12915;57.650;12.044;2022-11-15T01:26:23;12.70;99.90
24836;DHT22;12915;57.650;12.044;2022-11-15T01:28:52;12.80;99.90
24836;DHT22;12915;57.650;12.044;2022-11-15T01:31:20;12.50;99.90
24836;DHT22;12915;57.650;12.044;2022-11-15T01:33:48;12.50;99.90
24836;DHT22;12915;57.650;12.044;2022-11-15T01:36:17;12.60;99.90
24836;DHT22;12915;57.650;12.044;2022-11-15T01:39:02;12.70;99.90
24836;DHT22;12915;57.650;12.044;2022-11-15T01:41:32;12.80;99.90
24836;DHT22;12915;57.650;12.044;2022-11-15T01:47:23;12.90;99.90
24836;DHT22;12915;57.650;12.044;2022-11-15T01:49:55;13.00;99.90
24836;DHT22;12915;57.650;12.044;2022-11-15T01:52:30;12.90;99.90
24836;DHT22;12915;57.650;12.044;2022-11-15T01:57:30;12.60;99.90
24836;DHT22;12915;57.650;12.044;2022-11-15T01:59:57;12.80;99.90
24836;DHT22;12915;57.650;12.044;2022-11-15T02:02:26;12.90;99.90
24836;DHT22;12915;57.650;12.044;2022-11-15T02:04:52;12.50;99.90
24836;DHT22;12915;57.650;12.044;2022-11-15T02:07:20;12.30;99.90
24836;DHT22;12915;57.650;12.044;2022-11-15T02:09:48;12.20;99.90
24836;DHT22;12915;57.650;12.044;2022-11-15T02:12:18;12.30;99.90
24836;DHT22;12915;57.650;12.044;2022-11-15T02:14:50;12.10;99.90
24836;DHT22;12915;57.650;12.044;2022-11-15T02:39:21;12.20;99.90
24836;DHT22;12915;57.650;12.044;2022-11-15T02:42:00;12.30;99.90
24836;DHT22;12915;57.650;12.044;2022-11-15T02:44:33;12.30;99.90
24836;DHT22;12915;57.650;12.044;2022-11-15T02:47:04;12.20;99.90
24836;DHT22;12915;57.650;12.044;2022-11-15T02:49:48;12.00;99.90
24836;DHT22;12915;57.650;12.044;2022-11-15T02:52:16;11.90;99.90
24836;DHT22;12915;57.650;12.044;2022-11-15T02:54:43;11.50;99.90
24836;DHT22;12915;57.650;12.044;2022-11-15T02:57:20;11.60;99.90
24836;DHT22;12915;57.650;12.044;2022-11-15T03:05:09;11.40;99.90
24836;DHT22;12915;57.650;12.044;2022-11-15T03:08:02;11.30;99.90
24836;DHT22;12915;57.650;12.044;2022-11-15T03:10:42;11.50;99.90
24836;DHT22;12915;57.650;12.044;2022-11-15T03:20:55;11.50;99.90
24836;DHT22;12915;57.650;12.044;2022-11-15T03:23:24;11.60;99.90
24836;DHT22;12915;57.650;12.044;2022-11-15T03:25:53;11.60;99.90
24836;DHT22;12915;57.650;12.044;2022-11-15T03:28:27;11.50;99.90
24836;DHT22;12915;57.650;12.044;2022-11-15T03:30:54;11.60;99.90
24836;DHT22;12915;57.650;12.044;2022-11-15T03:33:21;11.30;99.90
24836;DHT22;12915;57.650;12.044;2022-11-15T03:35:49;11.50;99.90
24836;DHT22;12915;57.650;12.044;2022-11-15T03:38:34;11.60;99.90
24836;DHT22;12915;57.650;12.044;2022-11-15T03:41:14;11.60;99.90
24836;DHT22;12915;57.650;12.044;2022-11-15T03:43:53;11.50;99.90
24836;DHT22;12915;57.650;12.044;2022-11-15T03:46:32;11.30;99.90
24836;DHT22;12915;57.650;12.044;2022-11-15T03:49:11;11.60;99.90
24836;DHT22;12915;57.650;12.044;2022-11-15T03:51:37;11.40;99.90
24836;DHT22;12915;57.650;12.044;2022-11-15T03:54:08;11.10;99.90
24836;DHT22;12915;57.650;12.044;2022-11-15T03:56:34;11.00;99.90
24836;DHT22;12915;57.650;12.044;2022-11-15T03:59:00;11.20;99.90
24836;DHT22;12915;57.650;12.044;2022-11-15T04:01:26;11.40;99.90
24836;DHT22;12915;57.650;12.044;2022-11-15T04:03:52;11.60;99.90
24836;DHT22;12915;57.650;12.044;2022-11-15T04:06:19;11.70;99.90
24836;DHT22;12915;57.650;12.044;2022-11-15T04:08:45;11.50;99.90
24836;DHT22;12915;57.650;12.044;2022-11-15T04:11:10;11.60;99.90
24836;DHT22;12915;57.650;12.044;2022-11-15T04:13:36;11.60;99.90
24836;DHT22;12915;57.650;12.044;2022-11-15T04:16:02;11.30;99.90
24836;DHT22;12915;57.650;12.044;2022-11-15T04:18:28;11.30;99.90
24836;DHT22;12915;57.650;12.044;2022-11-15T04:20:54;11.60;99.90
24836;DHT22;12915;57.650;12.044;2022-11-15T04:23:38;11.80;99.90
24836;DHT22;12915;57.650;12.044;2022-11-15T04:26:23;11.70;99.90
24836;DHT22;12915;57.650;12.044;2022-11-15T04:28:49;11.60;99.90
24836;DHT22;12915;57.650;12.044;2022-11-15T04:31:33;11.70;99.90
24836;DHT22;12915;57.650;12.044;2022-11-15T04:33:59;11.80;99.90
24836;DHT22;12915;57.650;12.044;2022-11-15T04:36:25;11.80;99.90
24836;DHT22;12915;57.650;12.044;2022-11-15T04:39:10;11.80;99.90
24836;DHT22;12915;57.650;12.044;2022-11-15T04:41:36;11.90;99.90
24836;DHT22;12915;57.650;12.044;2022-11-15T04:44:02;11.90;99.90
24836;DHT22;12915;57.650;12.044;2022-11-15T04:46:29;12.00;99.90
24836;DHT22;12915;57.650;12.044;2022-11-15T04:48:55;12.10;99.90
24836;DHT22;12915;57.650;12.044;2022-11-15T04:51:22;12.10;99.90
24836;DHT22;12915;57.650;12.044;2022-11-15T04:59:19;11.40;99.90
24836;DHT22;12915;57.650;12.044;2022-11-15T05:01:48;11.40;99.90
24836;DHT22;12915;57.650;12.044;2022-11-15T05:04:29;11.40;99.90
24836;DHT22;12915;57.650;12.044;2022-11-15T05:07:06;11.60;99.90
24836;DHT22;12915;57.650;12.044;2022-11-15T05:10:04;11.80;99.90
24836;DHT22;12915;57.650;12.044;2022-11-15T05:12:31;11.60;99.90
24836;DHT22;12915;57.650;12.044;2022-11-15T05:14:57;11.30;99.90
24836;DHT22;12915;57.650;12.044;2022-11-15T05:17:23;11.40;99.90
24836;DHT22;12915;57.650;12.044;2022-11-15T05:19:49;11.30;99.90
24836;DHT22;12915;57.650;12.044;2022-11-15T05:22:17;11.50;99.90
24836;DHT22;12915;57.650;12.044;2022-11-15T05:24:43;11.40;99.90
24836;DHT22;12915;57.650;12.044;2022-11-15T05:27:38;11.20;99.90
24836;DHT22;12915;57.650;12.044;2022-11-15T05:30:13;11.10;99.90
24836;DHT22;12915;57.650;12.044;2022-11-15T05:32:39;10.90;99.90
24836;DHT22;12915;57.650;12.044;2022-11-15T05:35:12;10.90;99.90
24836;DHT22;12915;57.650;12.044;2022-11-15T05:37:39;11.10;99.90
24836;DHT22;12915;57.650;12.044;2022-11-15T05:40:05;11.10;99.90
24836;DHT22;12915;57.650;12.044;2022-11-15T05:42:37;11.30;99.90
24836;DHT22;12915;57.650;12.044;2022-11-15T05:45:06;11.10;99.90
24836;DHT22;12915;57.650;12.044;2022-11-15T05:47:36;10.90;99.90
24836;DHT22;12915;57.650;12.044;2022-11-15T05:50:04;10.90;99.90
24836;DHT22;12915;57.650;12.044;2022-11-15T05:52:59;10.90;99.90
24836;DHT22;12915;57.650;12.044;2022-11-15T05:55:38;10.70;99.90
24836;DHT22;12915;57.650;12.044;2022-11-15T05:58:04;10.60;99.90
24836;DHT22;12915;57.650;12.044;2022-11-15T06:00:30;10.60;99.90
24836;DHT22;12915;57.650;12.044;2022-11-15T06:03:04;10.90;99.90
24836;DHT22;12915;57.650;12.044;2022-11-15T06:05:30;11.00;99.90
24836;DHT22;12915;57.650;12.044;2022-11-15T06:07:58;10.60;99.90
24836;DHT22;12915;57.650;12.044;2022-11-15T06:10:24;10.50;99.90
24836;DHT22;12915;57.650;12.044;2022-11-15T06:13:03;10.50;99.90
24836;DHT22;12915;57.650;12.044;2022-11-15T06:18:11;10.60;99.90
24836;DHT22;12915;57.650;12.044;2022-11-15T06:20:37;10.50;99.90
24836;DHT22;12915;57.650;12.044;2022-11-15T06:23:04;10.60;99.90
24836;DHT22;12915;57.650;12.044;2022-11-15T06:25:31;10.90;99.90
24836;DHT22;12915;57.650;12.044;2022-11-15T06:27:58;10.90;99.90
24836;DHT22;12915;57.650;12.044;2022-11-15T06:30:25;11.00;99.90
24836;DHT22;12915;57.650;12.044;2022-11-15T06:32:52;11.20;99.90
24836;DHT22;12915;57.650;12.044;2022-11-15T06:35:23;11.20;99.90
24836;DHT22;12915;57.650;12.044;2022-11-15T06:37:49;10.90;99.90
24836;DHT22;12915;57.650;12.044;2022-11-15T06:40:15;10.90;99.90
24836;DHT22;12915;57.650;12.044;2022-11-15T06:42:41;10.80;99.90
24836;DHT22;12915;57.650;12.044;2022-11-15T06:45:07;10.60;99.90
24836;DHT22;12915;57.650;12.044;2022-11-15T06:47:33;10.70;99.90
24836;DHT22;12915;57.650;12.044;2022-11-15T06:49:58;10.80;99.90
24836;DHT22;12915;57.650;12.044;2022-11-15T06:52:24;10.80;99.90
24836;DHT22;12915;57.650;12.044;2022-11-15T06:54:55;10.60;99.90
24836;DHT22;12915;57.650;12.044;2022-11-15T06:57:24;10.80;99.90
24836;DHT22;12915;57.650;12.044;2022-11-15T06:59:50;10.80;99.90
24836;DHT22;12915;57.650;12.044;2022-11-15T07:02:16;10.90;99.90
24836;DHT22;12915;57.650;12.044;2022-11-15T07:04:41;11.10;99.90
24836;DHT22;12915;57.650;12.044;2022-11-15T07:07:07;11.20;99.90
24836;DHT22;12915;57.650;12.044;2022-11-15T07:09:33;11.00;99.90
24836;DHT22;12915;57.650;12.044;2022-11-15T07:11:59;11.20;99.90
24836;DHT22;12915;57.650;12.044;2022-11-15T07:14:24;11.20;99.90
24836;DHT22;12915;57.650;12.044;2022-11-15T07:16:50;11.20;99.90
24836;DHT22;12915;57.650;12.044;2022-11-15T07:19:19;11.20;99.90
24836;DHT22;12915;57.650;12.044;2022-11-15T07:21:45;11.00;99.90
24836;DHT22;12915;57.650;12.044;2022-11-15T07:24:10;11.00;99.90
24836;DHT22;12915;57.650;12.044;2022-11-15T07:26:36;11.20;99.90
24836;DHT22;12915;57.650;12.044;2022-11-15T07:29:02;11.30;99.90
24836;DHT22;12915;57.650;12.044;2022-11-15T07:31:31;11.30;99.90
24836;DHT22;12915;57.650;12.044;2022-11-15T07:33:57;11.20;99.90
24836;DHT22;12915;57.650;12.044;2022-11-15T07:36:23;11.20;99.90
24836;DHT22;12915;57.650;12.044;2022-11-15T07:38:49;10.90;99.90
24836;DHT22;12915;57.650;12.044;2022-11-15T07:41:15;11.10;99.90
24836;DHT22;12915;57.650;12.044;2022-11-15T07:43:40;11.20;99.90
24836;DHT22;12915;57.650;12.044;2022-11-15T07:46:07;11.50;99.90
24836;DHT22;12915;57.650;12.044;2022-11-15T07:48:35;11.70;99.90
24836;DHT22;12915;57.650;12.044;2022-11-15T07:51:02;11.80;99.90
24836;DHT22;12915;57.650;12.044;2022-11-15T07:53:28;11.90;99.90
24836;DHT22;12915;57.650;12.044;2022-11-15T07:55:56;11.60;99.90
24836;DHT22;12915;57.650;12.044;2022-11-15T07:58:22;11.90;99.90
24836;DHT22;12915;57.650;12.044;2022-11-15T08:00:48;12.00;99.90
24836;DHT22;12915;57.650;12.044;2022-11-15T08:03:15;12.00;99.90
24836;DHT22;12915;57.650;12.044;2022-11-15T08:05:43;11.80;99.90
24836;DHT22;12915;57.650;12.044;2022-11-15T08:08:10;11.70;99.90
24836;DHT22;12915;57.650;12.044;2022-11-15T08:10:36;11.60;99.90
24836;DHT22;12915;57.650;12.044;2022-11-15T08:13:07;11.60;99.90
24836;DHT22;12915;57.650;12.044;2022-11-15T08:15:34;11.50;99.90
24836;DHT22;12915;57.650;12.044;2022-11-15T08:18:09;11.30;99.90
24836;DHT22;12915;57.650;12.044;2022-11-15T08:20:35;11.40;99.90
24836;DHT22;12915;57.650;12.044;2022-11-15T08:23:02;11.40;99.90
24836;DHT22;12915;57.650;12.044;2022-11-15T08:25:30;11.50;99.90
24836;DHT22;12915;57.650;12.044;2022-11-15T08:27:59;11.40;99.90
24836;DHT22;12915;57.650;12.044;2022-11-15T08:30:25;11.50;99.90
24836;DHT22;12915;57.650;12.044;2022-11-15T08:32:52;11.20;99.90
24836;DHT22;12915;57.650;12.044;2022-11-15T08:35:19;11.10;99.90
24836;DHT22;12915;57.650;12.044;2022-11-15T08:37:46;11.40;99.90
24836;DHT22;12915;57.650;12.044;2022-11-15T08:40:12;11.60;99.90
24836;DHT22;12915;57.650;12.044;2022-11-15T08:46:01;12.20;99.90
24836;DHT22;12915;57.650;12.044;2022-11-15T08:48:27;11.80;99.90
24836;DHT22;12915;57.650;12.044;2022-11-15T08:50:56;11.50;99.90
24836;DHT22;12915;57.650;12.044;2022-11-15T08:53:22;11.50;99.90
24836;DHT22;12915;57.650;12.044;2022-11-15T08:59:10;11.60;99.90
24836;DHT22;12915;57.650;12.044;2022-11-15T09:01:37;11.60;99.90
24836;DHT22;12915;57.650;12.044;2022-11-15T09:04:03;11.70;99.90
24836;DHT22;12915;57.650;12.044;2022-11-15T09:06:29;11.20;99.90
24836;DHT22;12915;57.650;12.044;2022-11-15T09:08:57;11.20;99.90
24836;DHT22;12915;57.650;12.044;2022-11-15T09:11:22;11.40;99.90
24836;DHT22;12915;57.650;12.044;2022-11-15T09:13:49;11.60;99.90
24836;DHT22;12915;57.650;12.044;2022-11-15T09:16:15;11.60;99.90
24836;DHT22;12915;57.650;12.044;2022-11-15T09:18:53;11.40;99.90
24836;DHT22;12915;57.650;12.044;2022-11-15T09:21:28;11.30;99.90
24836;DHT22;12915;57.650;12.044;2022-11-15T09:23:55;11.20;99.90
24836;DHT22;12915;57.650;12.044;2022-11-15T09:26:22;11.30;99.90
24836;DHT22;12915;57.650;12.044;2022-11-15T09:28:48;11.60;99.90
24836;DHT22;12915;57.650;12.044;2022-11-15T09:31:14;11.50;99.90
24836;DHT22;12915;57.650;12.044;2022-11-15T09:33:40;11.50;99.90
24836;DHT22;12915;57.650;12.044;2022-11-15T09:36:09;11.30;99.90
24836;DHT22;12915;57.650;12.044;2022-11-15T09:38:35;11.50;99.90
24836;DHT22;12915;57.650;12.044;2022-11-15T09:41:34;11.90;99.90
24836;DHT22;12915;57.650;12.044;2022-11-15T09:44:14;12.10;99.90
24836;DHT22;12915;57.650;12.044;2022-11-15T09:52:04;12.10;99.90
24836;DHT22;12915;57.650;12.044;2022-11-15T10:05:22;12.60;99.90
24836;DHT22;12915;57.650;12.044;2022-11-15T10:10:59;12.20;99.90
24836;DHT22;12915;57.650;12.044;2022-11-15T10:13:30;12.10;99.90
24836;DHT22;12915;57.650;12.044;2022-11-15T10:16:12;12.00;99.90
24836;DHT22;12915;57.650;12.044;2022-11-15T10:18:56;12.00;99.90
24836;DHT22;12915;57.650;12.044;2022-11-15T10:21:32;12.00;99.90
24836;DHT22;12915;57.650;12.044;2022-11-15T10:24:00;12.00;99.90
24836;DHT22;12915;57.650;12.044;2022-11-15T10:26:26;11.90;99.90
24836;DHT22;12915;57.650;12.044;2022-11-15T10:28:53;12.00;99.90
24836;DHT22;12915;57.650;12.044;2022-11-15T10:31:25;12.20;99.90
24836;DHT22;12915;57.650;12.044;2022-11-15T10:33:53;12.30;99.90
24836;DHT22;12915;57.650;12.044;2022-11-15T10:36:23;12.20;99.90
24836;DHT22;12915;57.650;12.044;2022-11-15T10:43:51;12.50;99.90
24836;DHT22;12915;57.650;12.044;2022-11-15T10:46:26;12.50;99.90
24836;DHT22;12915;57.650;12.044;2022-11-15T10:48:52;12.40;99.90
24836;DHT22;12915;57.650;12.044;2022-11-15T10:51:27;12.40;99.90
24836;DHT22;12915;57.650;12.044;2022-11-15T10:53:56;12.30;99.90
24836;DHT22;12915;57.650;12.044;2022-11-15T10:56:25;12.10;99.90
24836;DHT22;12915;57.650;12.044;2022-11-15T10:58:54;12.10;99.90
24836;DHT22;12915;57.650;12.044;2022-11-15T11:01:25;12.10;99.90
24836;DHT22;12915;57.650;12.044;2022-11-15T11:04:18;12.30;99.90
24836;DHT22;12915;57.650;12.044;2022-11-15T11:06:58;12.40;99.90
24836;DHT22;12915;57.650;12.044;2022-11-15T11:11:56;11.80;99.90
24836;DHT22;12915;57.650;12.044;2022-11-15T11:14:32;11.90;99.90
24836;DHT22;12915;57.650;12.044;2022-11-15T11:17:18;11.70;99.90
24836;DHT22;12915;57.650;12.044;2022-11-15T11:25:30;11.80;99.90
24836;DHT22;12915;57.650;12.044;2022-11-15T11:33:31;11.90;99.90
24836;DHT22;12915;57.650;12.044;2022-11-15T11:49:34;12.40;99.90
24836;DHT22;12915;57.650;12.044;2022-11-15T11:52:49;12.60;99.90
24836;DHT22;12915;57.650;12.044;2022-11-15T11:57:43;12.50;99.90
24836;DHT22;12915;57.650;12.044;2022-11-15T12:00:24;12.50;99.90
24836;DHT22;12915;57.650;12.044;2022-11-15T12:05:55;12.60;99.90
24836;DHT22;12915;57.650;12.044;2022-11-15T12:14:03;13.00;99.90
24836;DHT22;12915;57.650;12.044;2022-11-15T12:16:32;13.00;99.90
24836;DHT22;12915;57.650;12.044;2022-11-15T12:19:03;13.00;99.90
24836;DHT22;12915;57.650;12.044;2022-11-15T12:24:50;13.20;99.90
24836;DHT22;12915;57.650;12.044;2022-11-15T12:30:14;13.10;99.90
24836;DHT22;12915;57.650;12.044;2022-11-15T12:32:40;13.10;99.90
24836;DHT22;12915;57.650;12.044;2022-11-15T12:35:32;13.40;99.90
24836;DHT22;12915;57.650;12.044;2022-11-15T12:37:59;13.20;99.90
24836;DHT22;12915;57.650;12.044;2022-11-15T12:40:26;13.10;99.90
24836;DHT22;12915;57.650;12.044;2022-11-15T12:43:32;13.10;99.90
24836;DHT22;12915;57.650;12.044;2022-11-15T12:45:52;13.10;99.90
24836;DHT22;12915;57.650;12.044;2022-11-15T12:50:56;12.90;99.90
24836;DHT22;12915;57.650;12.044;2022-11-15T12:58:56;12.90;99.90
24836;DHT22;12915;57.650;12.044;2022-11-15T13:06:49;13.00;99.90
24836;DHT22;12915;57.650;12.044;2022-11-15T13:12:10;12.90;99.90
24836;DHT22;12915;57.650;12.044;2022-11-15T13:14:58;12.80;99.90
24836;DHT22;12915;57.650;12.044;2022-11-15T13:17:34;12.50;99.90
24836;DHT22;12915;57.650;12.044;2022-11-15T13:23:06;12.40;99.90
24836;DHT22;12915;57.650;12.044;2022-11-15T13:30:51;12.10;99.90
24836;DHT22;12915;57.650;12.044;2022-11-15T13:38:43;12.10;99.90
24836;DHT22;12915;57.650;12.044;2022-11-15T13:43:42;11.80;99.90
24836;DHT22;12915;57.650;12.044;2022-11-15T13:46:13;11.40;99.90
24836;DHT22;12915;57.650;12.044;2022-11-15T13:48:41;11.50;99.90
24836;DHT22;12915;57.650;12.044;2022-11-15T13:51:25;11.70;99.90
24836;DHT22;12915;57.650;12.044;2022-11-15T13:56:45;11.40;99.90
24836;DHT22;12915;57.650;12.044;2022-11-15T13:59:24;11.50;99.90
24836;DHT22;12915;57.650;12.044;2022-11-15T14:01:52;11.70;99.90
24836;DHT22;12915;57.650;12.044;2022-11-15T14:04:21;11.70;99.90
24836;DHT22;12915;57.650;12.044;2022-11-15T14:06:58;11.90;99.90
24836;DHT22;12915;57.650;12.044;2022-11-15T14:09:35;12.00;99.90
24836;DHT22;12915;57.650;12.044;2022-11-15T14:12:20;12.10;99.90
24836;DHT22;12915;57.650;12.044;2022-11-15T14:14:47;12.20;99.90
24836;DHT22;12915;57.650;12.044;2022-11-15T14:19:55;12.30;99.90
24836;DHT22;12915;57.650;12.044;2022-11-15T14:22:24;12.30;99.90
24836;DHT22;12915;57.650;12.044;2022-11-15T14:27:39;11.80;99.90
24836;DHT22;12915;57.650;12.044;2022-11-15T14:30:05;11.70;99.90
24836;DHT22;12915;57.650;12.044;2022-11-15T14:32:57;11.70;99.90
24836;DHT22;12915;57.650;12.044;2022-11-15T14:35:23;11.40;99.90
24836;DHT22;12915;57.650;12.044;2022-11-15T14:37:49;11.20;99.90
24836;DHT22;12915;57.650;12.044;2022-11-15T14:40:20;11.20;99.90
24836;DHT22;12915;57.650;12.044;2022-11-15T14:42:47;11.30;99.90
24836;DHT22;12915;57.650;12.044;2022-11-15T14:45:19;11.30;99.90
24836;DHT22;12915;57.650;12.044;2022-11-15T14:47:45;11.40;99.90
24836;DHT22;12915;57.650;12.044;2022-11-15T14:50:16;11.60;99.90
24836;DHT22;12915;57.650;12.044;2022-11-15T14:52:42;11.50;99.90
24836;DHT22;12915;57.650;12.044;2022-11-15T14:55:29;11.30;99.90
24836;DHT22;12915;57.650;12.044;2022-11-15T14:57:57;10.90;99.90
24836;DHT22;12915;57.650;12.044;2022-11-15T15:00:24;10.80;99.90
24836;DHT22;12915;57.650;12.044;2022-11-15T15:02:52;10.80;99.90
24836;DHT22;12915;57.650;12.044;2022-11-15T15:07:50;10.80;99.90
24836;DHT22;12915;57.650;12.044;2022-11-15T15:10:17;10.90;99.90
24836;DHT22;12915;57.650;12.044;2022-11-15T15:12:43;10.90;99.90
24836;DHT22;12915;57.650;12.044;2022-11-15T15:15:17;10.60;99.90
24836;DHT22;12915;57.650;12.044;2022-11-15T15:17:43;10.30;99.90
24836;DHT22;12915;57.650;12.044;2022-11-15T15:20:10;10.40;99.90
24836;DHT22;12915;57.650;12.044;2022-11-15T15:22:36;10.20;99.90
24836;DHT22;12915;57.650;12.044;2022-11-15T15:25:03;10.30;99.90
24836;DHT22;12915;57.650;12.044;2022-11-15T15:30:52;10.40;99.90
24836;DHT22;12915;57.650;12.044;2022-11-15T15:33:18;10.30;99.90
24836;DHT22;12915;57.650;12.044;2022-11-15T15:35:44;10.50;99.90
24836;DHT22;12915;57.650;12.044;2022-11-15T15:38:13;10.60;99.90
24836;DHT22;12915;57.650;12.044;2022-11-15T15:40:40;10.40;99.90
24836;DHT22;12915;57.650;12.044;2022-11-15T15:43:06;10.40;99.90
24836;DHT22;12915;57.650;12.044;2022-11-15T15:45:38;10.50;99.90
24836;DHT22;12915;57.650;12.044;2022-11-15T15:48:05;10.30;99.90
24836;DHT22;12915;57.650;12.044;2022-11-15T15:50:34;10.10;99.90
24836;DHT22;12915;57.650;12.044;2022-11-15T15:53:02;10.00;99.90
24836;DHT22;12915;57.650;12.044;2022-11-15T15:55:28;10.00;99.90
24836;DHT22;12915;57.650;12.044;2022-11-15T15:57:54;10.10;99.90
24836;DHT22;12915;57.650;12.044;2022-11-15T16:00:21;10.00;99.90
24836;DHT22;12915;57.650;12.044;2022-11-15T16:02:49;9.80;99.90
24836;DHT22;12915;57.650;12.044;2022-11-15T16:05:15;10.00;99.90
24836;DHT22;12915;57.650;12.044;2022-11-15T16:07:40;10.10;99.90
24836;DHT22;12915;57.650;12.044;2022-11-15T16:10:31;9.90;99.90
24836;DHT22;12915;57.650;12.044;2022-11-15T16:12:57;9.80;99.90
24836;DHT22;12915;57.650;12.044;2022-11-15T16:15:26;9.50;99.90
24836;DHT22;12915;57.650;12.044;2022-11-15T16:21:14;9.30;99.90
24836;DHT22;12915;57.650;12.044;2022-11-15T16:23:40;9.20;99.90
24836;DHT22;12915;57.650;12.044;2022-11-15T16:26:26;9.30;99.90
24836;DHT22;12915;57.650;12.044;2022-11-15T16:28:53;9.40;99.90
24836;DHT22;12915;57.650;12.044;2022-11-15T16:31:19;9.50;99.90
24836;DHT22;12915;57.650;12.044;2022-11-15T16:33:47;9.70;99.90
24836;DHT22;12915;57.650;12.044;2022-11-15T16:36:25;9.40;99.90
24836;DHT22;12915;57.650;12.044;2022-11-15T16:38:52;9.30;99.90
24836;DHT22;12915;57.650;12.044;2022-11-15T16:41:18;9.40;99.90
24836;DHT22;12915;57.650;12.044;2022-11-15T16:43:47;9.30;99.90
24836;DHT22;12915;57.650;12.044;2022-11-15T16:46:24;9.30;99.90
24836;DHT22;12915;57.650;12.044;2022-11-15T16:48:50;9.20;99.90
24836;DHT22;12915;57.650;12.044;2022-11-15T16:51:16;9.20;99.90
24836;DHT22;12915;57.650;12.044;2022-11-15T16:53:43;9.30;99.90
24836;DHT22;12915;57.650;12.044;2022-11-15T16:56:28;9.50;99.90
24836;DHT22;12915;57.650;12.044;2022-11-15T16:58:56;9.60;99.90
24836;DHT22;12915;57.650;12.044;2022-11-15T17:01:27;9.50;99.90
24836;DHT22;12915;57.650;12.044;2022-11-15T17:03:54;9.50;99.90
24836;DHT22;12915;57.650;12.044;2022-11-15T17:06:20;9.50;99.90
24836;DHT22;12915;57.650;12.044;2022-11-15T17:08:46;9.30;99.90
24836;DHT22;12915;57.650;12.044;2022-11-15T17:11:15;9.30;99.90
24836;DHT22;12915;57.650;12.044;2022-11-15T17:13:41;9.20;99.90
24836;DHT22;12915;57.650;12.044;2022-11-15T17:16:12;9.30;99.90
24836;DHT22;12915;57.650;12.044;2022-11-15T17:18:40;9.40;99.90
24836;DHT22;12915;57.650;12.044;2022-11-15T17:21:08;9.10;99.90
24836;DHT22;12915;57.650;12.044;2022-11-15T17:23:35;9.20;99.90
24836;DHT22;12915;57.650;12.044;2022-11-15T17:26:02;9.10;99.90
24836;DHT22;12915;57.650;12.044;2022-11-15T17:28:33;9.10;99.90
24836;DHT22;12915;57.650;12.044;2022-11-15T17:30:59;9.30;99.90
24836;DHT22;12915;57.650;12.044;2022-11-15T17:33:26;9.30;99.90
24836;DHT22;12915;57.650;12.044;2022-11-15T17:36:00;9.40;99.90
24836;DHT22;12915;57.650;12.044;2022-11-15T17:38:27;9.40;99.90
24836;DHT22;12915;57.650;12.044;2022-11-15T17:41:22;9.20;99.90
24836;DHT22;12915;57.650;12.044;2022-11-15T17:43:48;9.10;99.90
24836;DHT22;12915;57.650;12.044;2022-11-15T17:46:16;8.80;99.90
24836;DHT22;12915;57.650;12.044;2022-11-15T17:48:44;9.00;99.90
24836;DHT22;12915;57.650;12.044;2022-11-15T17:51:12;9.00;99.90
24836;DHT22;12915;57.650;12.044;2022-11-15T17:53:40;8.80;99.90
24836;DHT22;12915;57.650;12.044;2022-11-15T17:56:08;8.60;99.90
24836;DHT22;12915;57.650;12.044;2022-11-15T17:58:35;8.70;99.90
24836;DHT22;12915;57.650;12.044;2022-11-15T18:01:09;8.80;99.90
24836;DHT22;12915;57.650;12.044;2022-11-15T18:03:35;8.90;99.90
24836;DHT22;12915;57.650;12.044;2022-11-15T18:06:03;8.70;99.90
24836;DHT22;12915;57.650;12.044;2022-11-15T18:08:29;9.00;99.90
24836;DHT22;12915;57.650;12.044;2022-11-15T18:11:16;9.10;99.90
24836;DHT22;12915;57.650;12.044;2022-11-15T18:13:46;9.10;99.90
24836;DHT22;12915;57.650;12.044;2022-11-15T18:16:14;9.10;99.90
24836;DHT22;12915;57.650;12.044;2022-11-15T18:18:41;9.20;99.90
24836;DHT22;12915;57.650;12.044;2022-11-15T18:21:11;9.20;99.90
24836;DHT22;12915;57.650;12.044;2022-11-15T18:23:38;9.50;99.90
24836;DHT22;12915;57.650;12.044;2022-11-15T18:26:05;9.50;99.90
24836;DHT22;12915;57.650;12.044;2022-11-15T18:28:33;9.30;99.90
24836;DHT22;12915;57.650;12.044;2022-11-15T18:31:01;9.20;99.90
24836;DHT22;12915;57.650;12.044;2022-11-15T18:33:28;9.20;99.90
24836;DHT22;12915;57.650;12.044;2022-11-15T18:36:02;9.20;99.90
24836;DHT22;12915;57.650;12.044;2022-11-15T18:38:28;9.10;99.90
24836;DHT22;12915;57.650;12.044;2022-11-15T18:41:11;9.10;99.90